This is the latest recevied weather packets stored in our database for station/object W1RCY. If no packets are shown the sender has not sent any weather packets the latest 10 day(s).
| Time | Temp. | Humidity | Pressure | Rain* | Wind** | Luminosity | Snow |
|---|---|---|---|---|---|---|---|
| 1777395905 | 17.22° C | 50% | 1020.6 hPa | 0 mm | - | 711 W/m² | - |
| 1777395601 | 17.22° C | 48% | 1020.9 hPa | 0 mm | - | 709 W/m² | - |
| 1777395297 | 16.67° C | 50% | 1020.8 hPa | 0 mm | - | 733 W/m² | - |
| 1777394995 | 17.22° C | 49% | 1020.7 hPa | 0 mm | - | 725 W/m² | - |
| 1777394691 | 17.22° C | 51% | 1020.8 hPa | 0 mm | - | 724 W/m² | - |
| 1777394387 | 16.11° C | 51% | 1021 hPa | 0 mm | - | 724 W/m² | - |
| 1777394084 | 16.11° C | 52% | 1021 hPa | 0 mm | - | 724 W/m² | - |
| 1777393780 | 16.11° C | 54% | 1021 hPa | 0 mm | - | 730 W/m² | - |
| 1777393479 | 16.67° C | 51% | 1021 hPa | 0 mm | - | 719 W/m² | - |
| 1777393175 | 16.67° C | 52% | 1021.1 hPa | 0 mm | - | 718 W/m² | - |
| 1777392872 | 15° C | 57% | 1021.2 hPa | 0 mm | - | 707 W/m² | - |
| 1777392567 | 16.11° C | 54% | 1021.1 hPa | 0 mm | - | 710 W/m² | - |
| 1777392263 | 16.11° C | 55% | 1021.6 hPa | 0 mm | - | 706 W/m² | - |
| 1777391958 | 15° C | 58% | 1021.4 hPa | 0 mm | - | 632 W/m² | - |
| 1777391654 | 15° C | 57% | 1021.6 hPa | 0 mm | - | 612 W/m² | - |
| 1777391350 | 15° C | 56% | 1021.8 hPa | 0 mm | - | 669 W/m² | - |
| 1777391047 | 14.44° C | 58% | 1021.8 hPa | 0 mm | - | 710 W/m² | - |
| 1777390742 | 15.56° C | 57% | 1021.9 hPa | 0 mm | - | 657 W/m² | - |
| 1777390440 | 15.56° C | 55% | 1021.9 hPa | 0 mm | - | 650 W/m² | - |
| 1777390136 | 15° C | 56% | 1021.9 hPa | 0 mm | - | 695 W/m² | - |
| 1777389832 | 15° C | 56% | 1022 hPa | 0 mm | - | 723 W/m² | - |
| 1777389530 | 14.44° C | 56% | 1022 hPa | 0 mm | - | 722 W/m² | - |
| 1777389226 | 14.44° C | 55% | 1021.8 hPa | 0 mm | - | 713 W/m² | - |
| 1777388924 | 14.44° C | 55% | 1022 hPa | 0 mm | - | 686 W/m² | - |
| 1777388620 | 14.44° C | 55% | 1022 hPa | 0 mm | - | 514 W/m² | - |
* Rain latest hour (hover to see other rain measurements)
** Current wind speed in m/s (hover to see current wind gust speed)